createdAt,value
2019-02-24T00:00:53.624Z,2.30
2019-02-24T00:03:40.016Z,2.20
2019-02-24T00:06:26.292Z,2.20
2019-02-24T00:09:12.924Z,2.10
2019-02-24T00:11:59.511Z,2.10
2019-02-24T00:14:45.641Z,2.00
2019-02-24T00:17:32.036Z,2.10
2019-02-24T00:20:18.333Z,2.00
2019-02-24T00:23:04.506Z,1.80
2019-02-24T00:25:50.637Z,1.90
2019-02-24T00:28:37.164Z,1.80
2019-02-24T00:31:23.400Z,1.80
2019-02-24T00:34:09.597Z,1.80
2019-02-24T00:36:55.745Z,1.70
2019-02-24T00:39:41.816Z,1.60
2019-02-24T00:42:27.981Z,1.70
2019-02-24T00:45:14.312Z,1.60
2019-02-24T00:48:00.485Z,1.60
2019-02-24T00:50:46.786Z,1.60
2019-02-24T00:53:33.135Z,1.60
2019-02-24T00:56:19.231Z,1.60
2019-02-24T00:59:05.739Z,1.60
2019-02-24T01:01:52.214Z,1.60
2019-02-24T01:04:38.440Z,1.60
2019-02-24T01:07:24.706Z,1.60
2019-02-24T01:10:10.844Z,1.70
2019-02-24T01:12:57.042Z,1.60
2019-02-24T01:15:43.289Z,1.70
2019-02-24T01:18:29.417Z,1.70
2019-02-24T01:21:15.620Z,1.70
2019-02-24T01:24:01.640Z,1.70
2019-02-24T01:26:47.826Z,1.70
2019-02-24T01:29:34.032Z,1.60
2019-02-24T01:32:20.004Z,1.60
2019-02-24T01:35:07.163Z,1.50
2019-02-24T01:37:53.150Z,1.60
2019-02-24T01:40:39.265Z,1.50
2019-02-24T01:43:25.789Z,1.60
2019-02-24T01:46:11.669Z,1.80
2019-02-24T01:48:57.861Z,2.10
2019-02-24T01:51:44.375Z,2.10
2019-02-24T01:54:30.555Z,2.10
2019-02-24T01:57:16.685Z,2.00
2019-02-24T02:00:03.397Z,2.00
2019-02-24T02:02:49.488Z,1.90
2019-02-24T02:05:35.915Z,1.90
2019-02-24T02:08:22.159Z,1.80
2019-02-24T02:11:08.364Z,1.80
2019-02-24T02:13:54.771Z,1.70
2019-02-24T02:16:41.320Z,1.70
2019-02-24T02:19:27.524Z,1.70
2019-02-24T02:22:13.794Z,1.70
2019-02-24T02:24:59.936Z,1.70
2019-02-24T02:27:46.005Z,1.70
2019-02-24T02:30:32.131Z,1.60
2019-02-24T02:33:18.253Z,1.60
2019-02-24T02:36:04.804Z,1.50
2019-02-24T02:38:51.041Z,1.60
2019-02-24T02:41:38.947Z,1.80
2019-02-24T02:44:24.707Z,1.70
2019-02-24T02:47:11.241Z,1.70
2019-02-24T02:49:57.329Z,1.70
2019-02-24T02:52:43.598Z,1.60
2019-02-24T02:55:29.917Z,1.50
2019-02-24T02:58:16.149Z,1.50
2019-02-24T03:01:02.628Z,1.60
2019-02-24T03:03:49.007Z,1.90
2019-02-24T03:06:42.986Z,1.90
2019-02-24T03:09:28.960Z,1.90
2019-02-24T03:12:15.417Z,1.90
2019-02-24T03:15:01.415Z,1.90
2019-02-24T03:17:47.710Z,1.80
2019-02-24T03:20:33.885Z,1.80
2019-02-24T03:23:20.324Z,1.80
2019-02-24T03:26:06.778Z,1.80
2019-02-24T03:28:53.017Z,1.80
2019-02-24T03:31:38.896Z,1.80
2019-02-24T03:34:24.965Z,1.80
2019-02-24T03:37:11.268Z,1.70
2019-02-24T03:39:57.409Z,1.70
2019-02-24T03:42:43.812Z,1.70
2019-02-24T03:45:29.999Z,1.70
2019-02-24T03:48:16.183Z,1.60
2019-02-24T03:51:02.349Z,1.50
2019-02-24T03:53:48.446Z,1.40
2019-02-24T03:56:34.657Z,1.40
2019-02-24T03:59:20.842Z,1.40
2019-02-24T04:02:06.907Z,1.40
2019-02-24T04:04:53.148Z,1.20
2019-02-24T04:07:39.407Z,1.20
2019-02-24T04:10:25.574Z,1.20
2019-02-24T04:13:11.765Z,1.40
2019-02-24T04:15:57.801Z,1.40
2019-02-24T04:18:43.997Z,1.30
2019-02-24T04:21:29.910Z,1.30
2019-02-24T04:24:16.275Z,1.30
2019-02-24T04:27:02.348Z,1.30
2019-02-24T04:29:48.612Z,1.20
2019-02-24T04:32:34.994Z,1.20
2019-02-24T04:35:21.045Z,1.20
2019-02-24T04:38:07.557Z,1.20
2019-02-24T04:40:53.612Z,1.20
2019-02-24T04:43:39.986Z,1.50
2019-02-24T04:46:26.486Z,1.60
2019-02-24T04:49:12.668Z,1.70
2019-02-24T04:51:58.837Z,1.70
2019-02-24T04:54:45.004Z,1.70
2019-02-24T04:57:31.099Z,1.80
2019-02-24T05:00:17.346Z,1.80
2019-02-24T05:03:03.453Z,1.90
2019-02-24T05:05:49.514Z,1.90
2019-02-24T05:08:36.001Z,1.80
2019-02-24T05:11:22.476Z,1.70
2019-02-24T05:14:08.645Z,1.60
2019-02-24T05:16:55.255Z,1.70
2019-02-24T05:19:41.708Z,1.60
2019-02-24T05:22:27.925Z,1.50
2019-02-24T05:25:14.285Z,1.50
2019-02-24T05:28:00.468Z,1.40
2019-02-24T05:30:46.594Z,1.30
2019-02-24T05:33:32.909Z,1.20
2019-02-24T05:36:19.288Z,1.00
2019-02-24T05:39:05.503Z,0.90
2019-02-24T05:41:51.661Z,0.60
2019-02-24T05:44:37.757Z,0.60
2019-02-24T05:47:23.973Z,0.40
2019-02-24T05:50:10.395Z,0.30
2019-02-24T05:52:56.798Z,0.40
2019-02-24T05:55:43.379Z,0.50
2019-02-24T05:58:29.510Z,0.40
2019-02-24T06:01:15.371Z,0.50
2019-02-24T06:04:01.603Z,0.40
2019-02-24T06:06:47.820Z,0.50
2019-02-24T06:09:34.141Z,0.50
2019-02-24T06:12:20.369Z,0.50
2019-02-24T06:15:06.678Z,0.40
2019-02-24T06:17:52.904Z,0.40
2019-02-24T06:20:39.197Z,0.30
2019-02-24T06:23:25.548Z,0.30
2019-02-24T06:26:11.996Z,0.30
2019-02-24T06:28:58.310Z,0.20
2019-02-24T06:31:44.398Z,0.20
2019-02-24T06:34:30.858Z,0.20
2019-02-24T06:37:17.137Z,0.10
2019-02-24T06:40:03.981Z,-0.10
2019-02-24T06:42:50.309Z,-0.30
2019-02-24T06:45:36.429Z,-0.20
2019-02-24T06:48:22.826Z,-0.10
2019-02-24T06:51:10.399Z,-0.10
2019-02-24T06:53:56.545Z,0.00
2019-02-24T06:56:42.747Z,-0.20
2019-02-24T06:59:28.987Z,-0.10
2019-02-24T07:02:15.139Z,-0.10
2019-02-24T07:05:01.547Z,0.00
2019-02-24T07:07:47.702Z,0.00
2019-02-24T07:10:33.622Z,0.10
2019-02-24T07:13:20.104Z,0.20
2019-02-24T07:16:06.609Z,0.30
2019-02-24T07:18:52.877Z,0.50
2019-02-24T07:21:39.461Z,0.50
2019-02-24T07:24:25.596Z,0.60
2019-02-24T07:27:11.681Z,1.10
2019-02-24T07:29:58.198Z,1.10
2019-02-24T07:32:44.800Z,1.00
2019-02-24T07:35:31.117Z,0.90
2019-02-24T07:38:17.629Z,1.00
2019-02-24T07:41:04.106Z,1.20
2019-02-24T07:43:50.574Z,1.50
2019-02-24T07:46:36.501Z,2.00
2019-02-24T07:49:22.890Z,2.60
2019-02-24T07:52:09.572Z,3.20
2019-02-24T07:54:55.728Z,3.50
2019-02-24T07:57:41.901Z,3.10
2019-02-24T08:00:32.162Z,3.90
2019-02-24T08:03:16.201Z,4.20
2019-02-24T08:06:02.060Z,4.10
2019-02-24T08:08:48.054Z,4.20
2019-02-24T08:11:34.492Z,4.50
2019-02-24T08:14:20.956Z,5.00
2019-02-24T08:17:07.253Z,4.70
2019-02-24T08:19:53.139Z,4.90
2019-02-24T08:22:39.296Z,5.60
2019-02-24T08:25:25.557Z,5.90
2019-02-24T08:28:11.906Z,6.40
2019-02-24T08:30:57.861Z,6.80
2019-02-24T08:33:43.976Z,7.30
2019-02-24T08:36:31.180Z,7.30
2019-02-24T08:39:18.272Z,10.70
2019-02-24T08:42:05.197Z,9.60
2019-02-24T08:44:52.163Z,9.10
2019-02-24T08:47:39.363Z,9.50
2019-02-24T08:50:26.859Z,9.70
2019-02-24T08:53:14.304Z,9.90
2019-02-24T08:56:01.137Z,9.70
2019-02-24T08:58:47.972Z,10.10
2019-02-24T09:01:35.083Z,9.80
2019-02-24T09:04:22.341Z,10.30
2019-02-24T09:07:09.501Z,10.60
2019-02-24T09:09:56.820Z,11.20
2019-02-24T09:12:44.091Z,11.50
2019-02-24T09:15:31.667Z,12.00
2019-02-24T09:18:19.280Z,12.80
2019-02-24T09:21:06.813Z,13.20
2019-02-24T09:23:54.468Z,12.40
2019-02-24T09:26:41.826Z,12.90
2019-02-24T09:29:29.640Z,13.60
2019-02-24T09:32:17.571Z,13.60
2019-02-24T09:35:06.430Z,13.30
2019-02-24T09:37:54.032Z,14.80
2019-02-24T09:40:41.690Z,15.70
2019-02-24T09:43:29.601Z,15.80
2019-02-24T09:46:17.927Z,15.90
2019-02-24T09:49:05.806Z,16.20
2019-02-24T09:51:53.752Z,16.70
2019-02-24T09:54:41.560Z,16.60
2019-02-24T09:57:29.158Z,16.70
2019-02-24T10:00:17.807Z,16.90
2019-02-24T10:03:05.618Z,17.30
2019-02-24T10:05:53.095Z,16.10
2019-02-24T10:08:40.937Z,16.10
2019-02-24T10:11:28.560Z,17.10
2019-02-24T10:14:16.610Z,17.80
2019-02-24T10:17:04.409Z,17.60
2019-02-24T10:19:51.797Z,19.20
2019-02-24T10:22:39.780Z,19.20
2019-02-24T10:25:27.402Z,19.00
2019-02-24T10:28:14.959Z,20.10
2019-02-24T10:31:02.841Z,19.90
2019-02-24T10:33:50.751Z,18.80
2019-02-24T10:36:38.236Z,18.50
2019-02-24T10:39:29.695Z,19.50
2019-02-24T10:42:14.866Z,18.90
2019-02-24T10:45:02.630Z,20.30
2019-02-24T10:47:50.434Z,21.70
2019-02-24T10:50:38.060Z,21.30
2019-02-24T10:53:25.630Z,21.40
2019-02-24T10:56:13.544Z,22.10
2019-02-24T10:59:01.098Z,21.40
2019-02-24T11:01:48.917Z,20.40
2019-02-24T11:04:36.596Z,20.70
2019-02-24T11:07:24.530Z,22.60
2019-02-24T11:10:12.372Z,22.80
2019-02-24T11:12:59.943Z,22.60
2019-02-24T11:15:47.598Z,22.90
2019-02-24T11:18:35.527Z,23.00
2019-02-24T11:21:23.470Z,21.80
2019-02-24T11:24:10.893Z,23.70
2019-02-24T11:26:58.350Z,24.00
2019-02-24T11:29:45.645Z,24.00
2019-02-24T11:32:33.453Z,25.00
2019-02-24T11:35:20.853Z,24.70
2019-02-24T11:38:08.217Z,24.60
2019-02-24T11:40:55.453Z,25.70
2019-02-24T11:43:42.686Z,23.50
2019-02-24T11:46:29.919Z,26.50
2019-02-24T11:49:17.425Z,24.60
2019-02-24T11:52:04.922Z,25.50
2019-02-24T11:54:52.385Z,25.60
2019-02-24T11:57:39.556Z,24.60
2019-02-24T12:00:27.136Z,25.70
2019-02-24T12:03:14.468Z,26.20
2019-02-24T12:06:01.804Z,26.50
2019-02-24T12:08:49.297Z,26.60
2019-02-24T12:11:36.533Z,26.70
2019-02-24T12:14:23.849Z,26.60
2019-02-24T12:17:11.118Z,26.90
2019-02-24T12:19:58.312Z,25.80
2019-02-24T12:22:45.545Z,26.50
2019-02-24T12:25:33.173Z,26.60
2019-02-24T12:28:20.530Z,25.60
2019-02-24T12:31:07.833Z,24.90
2019-02-24T12:33:56.827Z,26.00
2019-02-24T12:36:51.258Z,26.00
2019-02-24T12:39:38.310Z,27.00
2019-02-24T12:42:25.930Z,27.50
2019-02-24T12:45:13.538Z,26.70
2019-02-24T12:48:00.892Z,27.10
2019-02-24T12:50:48.422Z,27.80
2019-02-24T12:53:35.692Z,27.50
2019-02-24T12:56:23.431Z,27.60
2019-02-24T12:59:11.987Z,27.00
2019-02-24T13:02:05.442Z,26.20
2019-02-24T13:04:48.413Z,26.70
2019-02-24T13:07:36.038Z,26.60
2019-02-24T13:10:23.813Z,26.30
2019-02-24T13:13:11.224Z,27.20
2019-02-24T13:15:58.345Z,28.20
2019-02-24T13:18:45.570Z,28.20
2019-02-24T13:21:33.106Z,27.80
2019-02-24T13:24:20.366Z,27.70
2019-02-24T13:27:07.869Z,27.60
2019-02-24T13:29:55.165Z,26.90
2019-02-24T13:32:42.877Z,26.40
2019-02-24T13:35:30.415Z,25.10
2019-02-24T13:38:18.024Z,24.80
2019-02-24T13:41:05.393Z,23.60
2019-02-24T13:43:52.856Z,24.70
2019-02-24T13:46:40.076Z,25.00
2019-02-24T13:49:27.265Z,24.30
2019-02-24T13:52:14.745Z,23.80
2019-02-24T13:55:02.060Z,23.40
2019-02-24T13:57:49.609Z,23.00
2019-02-24T14:00:37.333Z,24.10
2019-02-24T14:03:24.431Z,23.00
2019-02-24T14:06:11.777Z,23.80
2019-02-24T14:08:59.277Z,24.10
2019-02-24T14:11:46.728Z,27.50
2019-02-24T14:14:34.101Z,23.50
2019-02-24T14:17:21.330Z,23.20
2019-02-24T14:20:12.935Z,23.60
2019-02-24T14:23:00.551Z,23.50
2019-02-24T14:25:47.872Z,23.90
2019-02-24T14:28:35.198Z,24.10
2019-02-24T14:31:22.753Z,23.80
2019-02-24T14:34:10.333Z,23.90
2019-02-24T14:36:59.440Z,24.40
2019-02-24T14:39:46.015Z,24.90
2019-02-24T14:42:33.370Z,23.50
2019-02-24T14:45:24.461Z,24.20
2019-02-24T14:48:11.798Z,24.30
2019-02-24T14:50:59.353Z,24.00
2019-02-24T14:53:46.672Z,23.90
2019-02-24T14:56:33.751Z,23.70
2019-02-24T14:59:21.282Z,24.10
2019-02-24T15:02:08.881Z,24.60
2019-02-24T15:04:56.602Z,25.20
2019-02-24T15:07:44.166Z,25.10
2019-02-24T15:10:31.447Z,25.00
2019-02-24T15:13:18.694Z,25.70
2019-02-24T15:16:06.509Z,25.70
2019-02-24T15:18:53.658Z,25.40
2019-02-24T15:21:41.362Z,24.30
2019-02-24T15:24:28.666Z,23.60
2019-02-24T15:27:15.917Z,23.70
2019-02-24T15:30:03.394Z,24.10
2019-02-24T15:32:51.901Z,23.10
2019-02-24T15:35:40.162Z,21.90
2019-02-24T15:38:27.671Z,21.20
2019-02-24T15:41:15.290Z,19.50
2019-02-24T15:44:03.075Z,18.90
2019-02-24T15:46:50.591Z,18.20
2019-02-24T15:49:38.491Z,17.70
2019-02-24T15:52:28.980Z,17.40
2019-02-24T15:55:17.771Z,17.30
2019-02-24T15:58:05.720Z,17.00
2019-02-24T16:00:53.421Z,16.30
2019-02-24T16:03:41.110Z,16.10
2019-02-24T16:06:36.922Z,15.80
2019-02-24T16:09:19.660Z,15.30
2019-02-24T16:12:07.516Z,15.50
2019-02-24T16:14:55.513Z,16.10
2019-02-24T16:17:43.450Z,16.70
2019-02-24T16:20:33.096Z,16.50
2019-02-24T16:23:20.751Z,15.90
2019-02-24T16:26:08.470Z,15.10
2019-02-24T16:28:56.132Z,14.30
2019-02-24T16:31:43.909Z,14.00
2019-02-24T16:34:31.751Z,13.80
2019-02-24T16:37:19.637Z,13.60
2019-02-24T16:40:10.227Z,13.40
2019-02-24T16:42:56.996Z,13.20
2019-02-24T16:45:44.048Z,12.90
2019-02-24T16:48:31.077Z,12.60
2019-02-24T16:51:17.746Z,12.50
2019-02-24T16:54:05.353Z,12.30
2019-02-24T16:56:52.840Z,12.90
2019-02-24T16:59:40.588Z,13.00
2019-02-24T17:02:27.949Z,12.80
2019-02-24T17:05:15.653Z,13.20
2019-02-24T17:08:03.046Z,13.60
2019-02-24T17:10:50.405Z,13.60
2019-02-24T17:13:37.917Z,13.40
2019-02-24T17:16:25.700Z,13.30
2019-02-24T17:19:12.743Z,13.30
2019-02-24T17:22:00.070Z,13.30
2019-02-24T17:24:47.774Z,13.10
2019-02-24T17:27:34.820Z,12.60
2019-02-24T17:30:23.663Z,12.60
2019-02-24T17:33:10.929Z,12.60
2019-02-24T17:35:58.063Z,12.60
2019-02-24T17:38:45.731Z,12.50
2019-02-24T17:41:33.436Z,12.50
2019-02-24T17:44:20.775Z,12.00
2019-02-24T17:47:07.894Z,11.70
2019-02-24T17:49:55.674Z,11.70
2019-02-24T17:52:43.054Z,11.80
2019-02-24T17:55:34.809Z,11.80
2019-02-24T17:58:22.368Z,11.70
2019-02-24T18:01:09.550Z,11.80
2019-02-24T18:03:57.002Z,11.70
2019-02-24T18:06:44.479Z,11.60
2019-02-24T18:09:31.881Z,11.60
2019-02-24T18:12:19.098Z,11.40
2019-02-24T18:15:09.291Z,11.10
2019-02-24T18:17:56.026Z,11.10
2019-02-24T18:20:43.557Z,10.60
2019-02-24T18:23:30.502Z,9.80
2019-02-24T18:26:17.573Z,9.80
2019-02-24T18:29:04.875Z,9.30
2019-02-24T18:31:52.061Z,9.10
2019-02-24T18:34:38.793Z,9.20
2019-02-24T18:37:25.528Z,9.30
2019-02-24T18:40:13.998Z,9.10
2019-02-24T18:43:01.222Z,9.00
2019-02-24T18:45:47.887Z,8.80
2019-02-24T18:48:35.434Z,8.60
2019-02-24T18:51:22.392Z,8.50
2019-02-24T18:54:09.448Z,8.10
2019-02-24T18:56:56.497Z,8.10
2019-02-24T18:59:43.470Z,8.20
2019-02-24T19:02:30.538Z,7.30
2019-02-24T19:05:17.435Z,7.70
2019-02-24T19:08:04.713Z,7.80
2019-02-24T19:10:51.484Z,7.80
2019-02-24T19:13:38.216Z,7.70
2019-02-24T19:16:25.004Z,7.40
2019-02-24T19:19:12.109Z,7.30
2019-02-24T19:21:59.113Z,7.30
2019-02-24T19:24:46.294Z,7.20
2019-02-24T19:27:33.552Z,7.10
2019-02-24T19:30:21.559Z,7.00
2019-02-24T19:33:08.613Z,7.10
2019-02-24T19:35:55.981Z,6.90
2019-02-24T19:38:43.016Z,6.80
2019-02-24T19:41:30.465Z,6.70
2019-02-24T19:44:17.369Z,6.60
2019-02-24T19:47:04.114Z,6.50
2019-02-24T19:49:51.158Z,6.30
2019-02-24T19:52:38.198Z,6.20
2019-02-24T19:55:25.429Z,6.30
2019-02-24T19:58:12.572Z,5.60
2019-02-24T20:01:00.052Z,5.80
2019-02-24T20:03:47.076Z,5.80
2019-02-24T20:06:34.013Z,5.80
2019-02-24T20:09:21.228Z,5.80
2019-02-24T20:12:08.363Z,5.70
2019-02-24T20:14:55.091Z,5.70
2019-02-24T20:17:42.156Z,5.80
2019-02-24T20:20:29.396Z,5.90
2019-02-24T20:23:16.109Z,5.90
2019-02-24T20:26:03.374Z,5.90
2019-02-24T20:28:50.820Z,5.80
2019-02-24T20:31:38.203Z,5.80
2019-02-24T20:34:25.960Z,5.60
2019-02-24T20:37:13.051Z,5.60
2019-02-24T20:40:00.038Z,5.50
2019-02-24T20:42:47.010Z,5.70
2019-02-24T20:45:34.324Z,5.60
2019-02-24T20:48:21.294Z,5.50
2019-02-24T20:51:08.232Z,5.60
2019-02-24T20:53:55.481Z,5.70
2019-02-24T20:56:42.918Z,5.60
2019-02-24T20:59:30.351Z,5.70
2019-02-24T21:02:17.545Z,5.70
2019-02-24T21:05:05.933Z,5.70
2019-02-24T21:07:52.995Z,5.80
2019-02-24T21:10:40.313Z,5.70
2019-02-24T21:13:27.353Z,5.70
2019-02-24T21:16:14.921Z,5.70
2019-02-24T21:19:02.011Z,5.60
2019-02-24T21:21:48.875Z,5.50
2019-02-24T21:24:36.251Z,5.30
2019-02-24T21:27:23.314Z,5.30
2019-02-24T21:30:13.489Z,5.30
2019-02-24T21:33:00.693Z,5.60
2019-02-24T21:35:48.074Z,5.90
2019-02-24T21:38:35.445Z,6.20
2019-02-24T21:41:22.603Z,5.90
2019-02-24T21:44:10.431Z,6.20
2019-02-24T21:46:58.068Z,6.30
2019-02-24T21:49:45.473Z,6.10
2019-02-24T21:52:33.141Z,6.20
2019-02-24T21:55:21.036Z,6.30
2019-02-24T21:58:08.780Z,5.50
2019-02-24T22:00:56.161Z,5.70
2019-02-24T22:03:43.808Z,5.80
2019-02-24T22:06:31.329Z,5.90
2019-02-24T22:09:19.244Z,5.90
2019-02-24T22:12:06.616Z,5.90
2019-02-24T22:14:54.455Z,5.90
2019-02-24T22:17:42.283Z,5.60
2019-02-24T22:20:29.974Z,5.70
2019-02-24T22:23:17.212Z,5.70
2019-02-24T22:26:04.802Z,5.70
2019-02-24T22:28:51.825Z,5.60
2019-02-24T22:31:39.300Z,5.60
2019-02-24T22:34:27.145Z,5.60
2019-02-24T22:37:14.561Z,5.40
2019-02-24T22:40:01.914Z,5.40
2019-02-24T22:42:49.168Z,5.40
2019-02-24T22:45:36.156Z,5.60
2019-02-24T22:48:23.436Z,5.60
2019-02-24T22:51:11.214Z,5.60
2019-02-24T22:53:58.408Z,5.70
2019-02-24T22:56:45.883Z,5.80
2019-02-24T22:59:33.394Z,5.70
2019-02-24T23:02:22.265Z,5.70
2019-02-24T23:05:09.541Z,5.80
2019-02-24T23:07:57.143Z,5.80
2019-02-24T23:10:44.300Z,5.80
2019-02-24T23:13:31.867Z,5.80
2019-02-24T23:16:19.232Z,5.80
2019-02-24T23:19:06.522Z,5.80
2019-02-24T23:21:53.931Z,5.80
2019-02-24T23:24:41.270Z,5.80
2019-02-24T23:27:28.720Z,5.90
2019-02-24T23:30:16.708Z,5.90
2019-02-24T23:33:04.529Z,5.90
2019-02-24T23:35:52.135Z,5.90
2019-02-24T23:38:39.534Z,5.90
2019-02-24T23:41:27.009Z,5.90
2019-02-24T23:44:14.355Z,5.90
2019-02-24T23:47:01.710Z,5.90
2019-02-24T23:49:48.973Z,6.00
2019-02-24T23:52:36.437Z,6.00
2019-02-24T23:55:23.827Z,5.90
2019-02-24T23:58:11.309Z,5.90
